Skip Navigation Links
NOAA logo - Click to go to the NOAA homepage
NOAA's National Weather Service
Alaska Aviation Weather Unit
  NWS logo - Click to go to the NWS homepage
Left Navbar Graphic     10 AKDT = 18 GMT

   
NOAA is celebrating 200 years of science, service, and stewardship. Visit the NOAA 200th celebration Web site to learn more.
USA.gov is the U.S. Government's official Web portal to all Federal, state and local government Web resources and services.
Facebook
NWS on Facebook

Important Change Regarding the AAWU Web Presence

 

Over the last several months, the AAWU has been working to navigate its webpages to a nationally supported server. Security, as well as other needs, have necessitated the change.  We have been given an extension for the site changeover while we diligently work at addressing feedback received. As of July 14, 2017, aawu.arh.noaa.gov will be discontinued. The new AAWU web address is weather.gov/aawu. It is now live and will run in-parallel with the old site until it is discontinued on July 14, 2017. Please continue to send any feedback or questions regarding the new webpages to nws.ar.aawu.webauthors@noaa.gov.  Thank you for your patience during this time of transition.
AAWU Home :: Display TAF Add Bookmark
SPECI PPIZ 261220Z AUTO 22004KT 10SM SCT028 00/00 A3015 RMK AO2 FZRANO
      TSNO=

SPECI PPIZ 261249Z AUTO 24005KT 10SM BKN026 02/00 A3015 RMK AO2 FZRANO
      TSNO=

METAR PPIZ 261256Z AUTO 26009KT 10SM BKN026 02/M01 A3015 RMK AO2 SLP213
     T00171006 FZRANO TSNO=

METAR PPIZ 261356Z AUTO 16006KT 10SM OVC026 00/M02 A3014 RMK AO2 SLP211
     T00001017 FZRANO TSNO=

METAR PPIZ 261456Z AUTO 18009KT 10SM OVC028 M01/M01 A3014 RMK AO2 SLP210
     T10061011 58003 FZRANO TSNO=

METAR PPIZ 261556Z AUTO 16009KT 10SM OVC026 M01/M02 A3014 RMK AO2 SLP210
     T10061017 FZRANO TSNO=

SPECI PPIZ 261627Z AUTO 16007KT 10SM SCT026 M01/M02 A3014 RMK AO2 FZRANO
      TSNO=

METAR PPIZ 261656Z AUTO 17009KT 10SM CLR M01/M02 A3014 RMK AO2 SLP209
     T10111022 FZRANO TSNO=

SPECI PPIZ 261751Z AUTO 17008KT 10SM BKN029 M01/M02 A3013 RMK AO2 FZRANO
      TSNO=

METAR PPIZ 261756Z AUTO 18007KT 10SM BKN029 M01/M02 A3013 RMK AO2 SLP208
     T10111017 10028 21017 57001 FZRANO TSNO=


NOAA's National Weather Service
Alaska Aviation Weather Unit
6930 Sand Lake Road
Anchorage, AK 99502-1845
Disclaimer
Credits
Glossary
Privacy Policy
About Us
Career Opportunities
Contact AAWU Internet Services Site last modified: April, 17th 2012